createdAt,value
2018-12-25T00:00:51.345Z,6.47
2018-12-25T00:03:21.807Z,6.87
2018-12-25T00:05:52.298Z,7.57
2018-12-25T00:08:42.202Z,9.17
2018-12-25T00:11:32.140Z,6.33
2018-12-25T00:14:02.934Z,7.03
2018-12-25T00:16:35.132Z,9.10
2018-12-25T00:19:06.306Z,7.23
2018-12-25T00:21:57.260Z,7.60
2018-12-25T00:24:27.702Z,7.53
2018-12-25T00:26:58.213Z,6.50
2018-12-25T00:29:28.684Z,7.97
2018-12-25T00:31:59.452Z,7.43
2018-12-25T00:34:29.932Z,7.13
2018-12-25T00:37:19.849Z,9.00
2018-12-25T00:39:50.329Z,6.77
2018-12-25T00:42:20.777Z,6.03
2018-12-25T00:45:10.733Z,5.67
2018-12-25T00:47:41.176Z,8.30
2018-12-25T00:50:11.959Z,8.17
2018-12-25T00:53:02.303Z,11.10
2018-12-25T00:55:32.743Z,6.10
2018-12-25T00:58:03.227Z,5.00
2018-12-25T01:00:53.132Z,7.10
2018-12-25T01:03:23.800Z,5.27
2018-12-25T01:05:54.244Z,9.87
2018-12-25T01:08:26.718Z,4.80
2018-12-25T01:10:57.180Z,7.43
2018-12-25T01:13:27.617Z,5.37
2018-12-25T01:15:58.419Z,5.23
2018-12-25T01:18:28.853Z,9.27
2018-12-25T01:20:59.680Z,6.87
2018-12-25T01:23:30.655Z,7.50
2018-12-25T01:26:01.079Z,6.90
2018-12-25T01:28:31.669Z,5.73
2018-12-25T01:31:02.102Z,8.83
2018-12-25T01:33:32.547Z,7.70
2018-12-25T01:36:03.010Z,9.07
2018-12-25T01:38:33.752Z,8.17
2018-12-25T01:41:04.231Z,6.27
2018-12-25T01:43:34.984Z,5.27
2018-12-25T01:46:05.426Z,7.00
2018-12-25T01:48:35.884Z,8.10
2018-12-25T01:51:06.395Z,7.97
2018-12-25T01:53:36.873Z,6.83
2018-12-25T01:56:07.309Z,8.00
2018-12-25T01:58:38.490Z,7.07
2018-12-25T02:01:08.957Z,7.53
2018-12-25T02:03:39.430Z,8.40
2018-12-25T02:06:29.390Z,6.83
2018-12-25T02:09:19.296Z,7.67
2018-12-25T02:11:49.800Z,5.77
2018-12-25T02:14:20.232Z,9.17
2018-12-25T02:17:09.757Z,8.43
2018-12-25T02:19:40.628Z,7.03
2018-12-25T02:22:11.432Z,5.23
2018-12-25T02:24:41.902Z,4.53
2018-12-25T02:27:12.348Z,8.53
2018-12-25T02:32:58.455Z,6.90
2018-12-25T02:35:29.294Z,5.03
2018-12-25T02:37:59.727Z,7.77
2018-12-25T02:40:30.172Z,7.73
2018-12-25T02:43:00.616Z,7.90
2018-12-25T02:45:31.420Z,6.23
2018-12-25T02:48:01.914Z,5.23
2018-12-25T02:50:32.343Z,6.30
2018-12-25T02:53:22.309Z,6.43
2018-12-25T02:55:54.465Z,7.93
2018-12-25T02:58:44.413Z,9.20
2018-12-25T03:01:14.850Z,9.70
2018-12-25T03:03:45.301Z,5.27
2018-12-25T03:06:16.287Z,6.93
2018-12-25T03:08:46.723Z,5.60
2018-12-25T03:11:36.680Z,5.07
2018-12-25T03:14:07.133Z,7.93
2018-12-25T03:16:37.557Z,7.43
2018-12-25T03:19:08.021Z,3.73
2018-12-25T03:21:38.459Z,5.57
2018-12-25T03:24:28.397Z,4.30
2018-12-25T03:27:18.684Z,4.07
2018-12-25T03:29:49.166Z,5.97
2018-12-25T03:32:19.996Z,3.77
2018-12-25T03:34:50.418Z,4.37
2018-12-25T03:37:20.883Z,4.43
2018-12-25T03:40:11.099Z,8.63
2018-12-25T03:43:19.956Z,6.63
2018-12-25T03:45:50.386Z,5.50
2018-12-25T03:48:20.868Z,6.73
2018-12-25T03:50:51.300Z,4.53
2018-12-25T03:53:21.738Z,3.47
2018-12-25T03:55:52.191Z,3.53
2018-12-25T03:58:42.093Z,5.93
2018-12-25T04:01:12.566Z,5.83
2018-12-25T04:03:43.400Z,5.30
2018-12-25T04:06:13.828Z,4.60
2018-12-25T04:08:44.665Z,7.33
2018-12-25T04:11:15.098Z,3.77
2018-12-25T04:13:46.069Z,6.10
2018-12-25T04:16:16.551Z,4.30
2018-12-25T04:18:46.983Z,4.63
2018-12-25T04:21:17.455Z,3.47
2018-12-25T04:23:47.874Z,3.87
2018-12-25T04:26:18.697Z,5.10
2018-12-25T04:28:49.127Z,4.17
2018-12-25T04:31:21.289Z,6.27
2018-12-25T04:33:52.161Z,5.37
2018-12-25T04:36:24.304Z,5.53
2018-12-25T04:38:55.151Z,4.63
2018-12-25T04:41:27.285Z,5.80
2018-12-25T04:43:57.883Z,6.40
2018-12-25T04:46:28.353Z,3.63
2018-12-25T04:48:58.799Z,5.00
2018-12-25T04:51:29.831Z,4.83
2018-12-25T04:54:00.262Z,6.27
2018-12-25T04:56:30.693Z,7.90
2018-12-25T04:59:20.621Z,4.57
2018-12-25T05:01:51.053Z,6.00
2018-12-25T05:04:21.559Z,4.47
2018-12-25T05:06:52.384Z,4.03
2018-12-25T05:09:22.832Z,3.93
2018-12-25T05:12:13.097Z,4.57
2018-12-25T05:14:43.538Z,4.43
2018-12-25T05:17:14.013Z,5.60
2018-12-25T05:20:03.956Z,4.40
2018-12-25T05:22:53.896Z,5.30
2018-12-25T05:25:24.641Z,5.43
2018-12-25T05:27:55.072Z,3.93
2018-12-25T05:30:25.536Z,4.20
2018-12-25T05:32:55.969Z,4.93
2018-12-25T05:35:26.769Z,5.07
2018-12-25T05:37:57.205Z,5.80
2018-12-25T05:40:27.642Z,5.03
2018-12-25T05:42:58.109Z,4.73
2018-12-25T05:45:48.014Z,5.10
2018-12-25T05:48:20.591Z,4.53
2018-12-25T05:50:51.032Z,5.20
2018-12-25T05:53:21.460Z,6.10
2018-12-25T05:55:51.920Z,4.77
2018-12-25T05:58:22.350Z,8.80
2018-12-25T06:00:52.830Z,4.63
2018-12-25T06:03:23.291Z,7.00
2018-12-25T06:05:55.439Z,5.80
2018-12-25T06:08:27.620Z,6.93
2018-12-25T06:10:58.070Z,6.77
2018-12-25T06:13:28.901Z,6.33
2018-12-25T06:15:59.497Z,6.63
2018-12-25T06:18:30.271Z,5.13
2018-12-25T06:21:00.732Z,6.30
2018-12-25T06:23:31.168Z,4.03
2018-12-25T06:26:01.645Z,7.23
2018-12-25T06:28:32.078Z,6.20
2018-12-25T06:31:02.926Z,6.27
2018-12-25T06:33:33.381Z,6.50
2018-12-25T06:36:04.196Z,4.43
2018-12-25T06:38:34.674Z,6.60
2018-12-25T06:41:05.105Z,5.60
2018-12-25T06:43:35.541Z,7.20
2018-12-25T06:46:06.002Z,5.13
2018-12-25T06:48:36.439Z,8.37
2018-12-25T06:51:06.919Z,6.77
2018-12-25T06:53:37.349Z,5.53
2018-12-25T06:56:08.152Z,8.77
2018-12-25T06:58:38.617Z,5.57
2018-12-25T07:01:09.048Z,7.03
2018-12-25T07:03:41.266Z,6.40
2018-12-25T07:06:13.496Z,5.80
2018-12-25T07:12:00.173Z,7.53
2018-12-25T07:14:31.045Z,5.60
2018-12-25T07:17:01.842Z,5.17
2018-12-25T07:19:52.120Z,6.37
2018-12-25T07:22:22.560Z,6.10
2018-12-25T07:24:52.996Z,5.13
2018-12-25T07:27:23.474Z,7.90
2018-12-25T07:29:54.063Z,5.73
2018-12-25T07:32:24.881Z,5.60
2018-12-25T07:34:55.311Z,4.77
2018-12-25T07:37:25.745Z,5.40
2018-12-25T07:39:56.205Z,8.60
2018-12-25T07:42:26.636Z,5.87
2018-12-25T07:44:57.115Z,5.67
2018-12-25T07:47:27.565Z,9.00
2018-12-25T07:49:57.991Z,6.57
2018-12-25T07:52:28.455Z,4.70
2018-12-25T07:54:58.885Z,6.77
2018-12-25T07:57:29.365Z,4.73
2018-12-25T07:59:59.803Z,7.13
2018-12-25T08:02:30.232Z,5.30
2018-12-25T08:05:01.108Z,6.10
2018-12-25T08:07:31.694Z,6.87
2018-12-25T08:10:02.182Z,6.10
2018-12-25T08:12:34.327Z,6.63
2018-12-25T08:15:05.158Z,5.20
2018-12-25T08:17:35.684Z,5.33
2018-12-25T08:20:06.231Z,7.20
2018-12-25T08:22:36.702Z,3.97
2018-12-25T08:25:07.135Z,6.70
2018-12-25T08:27:37.568Z,5.00
2018-12-25T08:30:08.024Z,4.63
2018-12-25T08:32:38.453Z,4.57
2018-12-25T08:35:10.652Z,8.37
2018-12-25T08:37:41.092Z,5.17
2018-12-25T08:40:11.534Z,4.30
2018-12-25T08:42:41.994Z,5.23
2018-12-25T08:45:31.904Z,8.17
2018-12-25T08:48:04.096Z,5.57
2018-12-25T08:50:53.815Z,8.17
2018-12-25T08:53:24.301Z,5.77
2018-12-25T08:55:55.041Z,6.73
2018-12-25T08:58:25.479Z,6.40
2018-12-25T09:00:55.944Z,6.73
2018-12-25T09:03:26.709Z,6.87
2018-12-25T09:05:57.188Z,6.83
2018-12-25T09:08:34.747Z,7.27
2018-12-25T09:11:20.994Z,7.27
2018-12-25T09:13:51.414Z,6.43
2018-12-25T09:16:21.845Z,8.07
2018-12-25T09:18:52.305Z,11.43
2018-12-25T09:21:46.364Z,6.93
2018-12-25T09:24:34.245Z,9.03
2018-12-25T09:27:05.045Z,6.20
2018-12-25T09:29:35.482Z,6.73
2018-12-25T09:32:05.947Z,10.43
2018-12-25T09:34:36.389Z,7.97
2018-12-25T09:37:06.866Z,4.90
2018-12-25T09:39:37.306Z,5.67
2018-12-25T09:42:08.447Z,7.00
2018-12-25T09:44:38.908Z,5.77
2018-12-25T09:47:09.347Z,8.93
2018-12-25T09:49:40.144Z,6.83
2018-12-25T09:52:10.573Z,7.97
2018-12-25T09:54:41.160Z,7.07
2018-12-25T09:57:11.619Z,6.73
2018-12-25T09:59:42.408Z,7.83
2018-12-25T10:02:12.889Z,8.10
2018-12-25T10:04:43.343Z,7.77
2018-12-25T10:07:13.779Z,5.27
2018-12-25T10:09:44.238Z,8.03
2018-12-25T10:12:14.680Z,5.60
2018-12-25T10:14:45.154Z,5.87
2018-12-25T10:17:34.469Z,6.37
2018-12-25T10:20:06.670Z,8.23
2018-12-25T10:22:56.574Z,8.30
2018-12-25T10:25:27.033Z,8.20
2018-12-25T10:27:57.474Z,7.00
2018-12-25T10:30:28.249Z,6.77
2018-12-25T10:32:58.712Z,6.63
2018-12-25T10:35:30.861Z,7.43
2018-12-25T10:38:01.293Z,5.50
2018-12-25T10:40:31.751Z,7.10
2018-12-25T10:43:02.185Z,4.73
2018-12-25T10:45:52.532Z,5.00
2018-12-25T10:48:23.360Z,5.63
2018-12-25T10:50:53.790Z,4.83
2018-12-25T10:53:24.658Z,9.10
2018-12-25T10:55:55.092Z,5.20
2018-12-25T10:58:45.059Z,5.80
2018-12-25T11:01:41.613Z,4.43
2018-12-25T11:04:12.117Z,7.87
2018-12-25T11:06:42.634Z,11.90
2018-12-25T11:09:14.014Z,8.07
2018-12-25T11:12:05.048Z,5.37
2018-12-25T11:14:35.477Z,7.97
2018-12-25T11:17:05.949Z,7.80
2018-12-25T11:19:36.383Z,6.83
2018-12-25T11:22:06.809Z,4.60
2018-12-25T11:24:37.273Z,6.47
2018-12-25T11:27:07.714Z,7.17
2018-12-25T11:29:38.185Z,6.83
2018-12-25T11:32:08.969Z,8.03
2018-12-25T11:34:39.400Z,7.10
2018-12-25T11:37:09.858Z,6.60
2018-12-25T11:39:40.287Z,5.43
2018-12-25T11:42:30.915Z,6.17
2018-12-25T11:45:01.350Z,6.00
2018-12-25T11:47:51.666Z,6.93
2018-12-25T11:50:22.110Z,7.77
2018-12-25T11:52:52.549Z,6.70
2018-12-25T11:55:23.009Z,6.93
2018-12-25T12:01:03.145Z,6.00
2018-12-25T12:03:36.025Z,6.23
2018-12-25T12:06:06.462Z,6.30
2018-12-25T12:08:37.249Z,5.07
2018-12-25T12:11:07.686Z,5.67
2018-12-25T12:13:38.496Z,4.47
2018-12-25T12:16:08.929Z,7.43
2018-12-25T12:18:39.359Z,5.27
2018-12-25T12:21:10.225Z,6.00
2018-12-25T12:23:40.663Z,5.97
2018-12-25T12:26:30.588Z,4.30
2018-12-25T12:29:01.056Z,4.97
2018-12-25T12:31:31.897Z,5.63
2018-12-25T12:34:02.383Z,4.60
2018-12-25T12:36:32.822Z,4.13
2018-12-25T12:42:19.606Z,5.00
2018-12-25T12:44:50.045Z,5.90
2018-12-25T12:47:20.544Z,4.03
2018-12-25T12:49:50.962Z,5.80
2018-12-25T12:52:23.158Z,5.53
2018-12-25T12:54:53.590Z,3.17
2018-12-25T12:57:24.402Z,5.77
2018-12-25T12:59:55.232Z,6.67
2018-12-25T13:02:25.677Z,4.73
2018-12-25T13:04:56.188Z,3.13
2018-12-25T13:07:26.989Z,3.90
2018-12-25T13:09:57.420Z,5.07
2018-12-25T13:12:27.884Z,4.00
2018-12-25T13:14:58.309Z,4.33
2018-12-25T13:17:28.794Z,3.07
2018-12-25T13:19:59.226Z,6.13
2018-12-25T13:22:29.765Z,3.20
2018-12-25T13:25:00.526Z,4.17
2018-12-25T13:27:30.953Z,2.83
2018-12-25T13:30:01.522Z,3.00
2018-12-25T13:32:32.312Z,4.93
2018-12-25T13:35:02.740Z,4.53
2018-12-25T13:37:33.596Z,3.97
2018-12-25T13:40:04.142Z,2.37
2018-12-25T13:42:34.619Z,5.00
2018-12-25T13:45:05.131Z,4.63
2018-12-25T13:47:35.569Z,6.47
2018-12-25T13:50:25.589Z,5.17
2018-12-25T13:53:02.761Z,3.60
2018-12-25T13:55:47.676Z,4.47
2018-12-25T13:58:18.105Z,3.87
2018-12-25T14:00:48.941Z,5.27
2018-12-25T14:03:19.849Z,3.23
2018-12-25T14:05:52.025Z,6.37
2018-12-25T14:08:24.223Z,2.53
2018-12-25T14:10:54.671Z,2.70
2018-12-25T14:13:25.104Z,4.97
2018-12-25T14:15:55.573Z,4.47
2018-12-25T14:18:26.452Z,4.10
2018-12-25T14:20:59.030Z,4.40
2018-12-25T14:23:29.469Z,4.07
2018-12-25T14:25:59.909Z,5.23
2018-12-25T14:28:30.371Z,2.97
2018-12-25T14:31:00.815Z,3.17
2018-12-25T14:33:51.136Z,2.73
2018-12-25T14:36:21.573Z,2.33
2018-12-25T14:38:52.007Z,3.60
2018-12-25T14:41:22.464Z,2.73
2018-12-25T14:43:52.895Z,3.33
2018-12-25T14:46:23.378Z,3.57
2018-12-25T14:48:53.815Z,3.57
2018-12-25T14:51:24.249Z,4.17
2018-12-25T14:53:54.705Z,1.83
2018-12-25T14:56:25.136Z,2.70
2018-12-25T14:58:55.595Z,3.33
2018-12-25T15:01:26.037Z,6.10
2018-12-25T15:03:56.520Z,4.03
2018-12-25T15:06:26.991Z,5.50
2018-12-25T15:08:57.432Z,5.70
2018-12-25T15:11:47.359Z,5.77
2018-12-25T15:14:18.165Z,5.20
2018-12-25T15:16:48.640Z,3.90
2018-12-25T15:19:20.800Z,3.93
2018-12-25T15:21:51.230Z,4.00
2018-12-25T15:24:21.684Z,4.80
2018-12-25T15:26:52.112Z,6.03
2018-12-25T15:29:23.571Z,4.90
2018-12-25T15:32:14.564Z,5.03
2018-12-25T15:34:47.615Z,5.97
2018-12-25T15:37:18.053Z,2.67
2018-12-25T15:39:48.822Z,3.20
2018-12-25T15:42:19.283Z,4.90
2018-12-25T15:44:49.713Z,6.77
2018-12-25T15:47:20.199Z,3.37
2018-12-25T15:49:50.630Z,4.70
2018-12-25T15:52:21.069Z,4.60
2018-12-25T15:54:52.234Z,8.50
2018-12-25T15:57:22.677Z,2.30
2018-12-25T15:59:53.148Z,6.53
2018-12-25T16:02:43.371Z,3.43
2018-12-25T16:05:14.148Z,6.03
2018-12-25T16:07:44.619Z,4.03
2018-12-25T16:10:34.552Z,6.07
2018-12-25T16:13:04.992Z,4.97
2018-12-25T16:15:35.473Z,5.13
2018-12-25T16:18:25.375Z,3.27
2018-12-25T16:21:15.330Z,3.40
2018-12-25T16:23:45.973Z,6.10
2018-12-25T16:26:37.421Z,4.07
2018-12-25T16:29:07.854Z,3.37
2018-12-25T16:31:38.293Z,5.07
2018-12-25T16:34:09.086Z,3.23
2018-12-25T16:39:29.151Z,6.33
2018-12-25T16:42:01.650Z,5.87
2018-12-25T16:44:51.158Z,6.70
2018-12-25T16:47:21.593Z,3.13
2018-12-25T16:49:52.086Z,4.10
2018-12-25T16:52:22.961Z,3.67
2018-12-25T16:54:53.392Z,5.87
2018-12-25T16:57:23.868Z,5.90
2018-12-25T16:59:54.305Z,3.93
2018-12-25T17:02:24.737Z,4.03
2018-12-25T17:04:55.194Z,5.50
2018-12-25T17:07:27.760Z,6.50
2018-12-25T17:09:58.249Z,5.43
2018-12-25T17:12:28.793Z,4.23
2018-12-25T17:14:59.194Z,4.13
2018-12-25T17:17:29.653Z,3.07
2018-12-25T17:20:00.151Z,5.30
2018-12-25T17:22:30.657Z,5.33
2018-12-25T17:25:01.088Z,4.13
2018-12-25T17:27:31.521Z,4.10
2018-12-25T17:30:01.985Z,4.60
2018-12-25T17:32:32.415Z,9.20
2018-12-25T17:35:04.717Z,6.53
2018-12-25T17:37:35.562Z,6.30
2018-12-25T17:40:06.118Z,7.03
2018-12-25T17:42:36.584Z,7.10
2018-12-25T17:45:07.300Z,5.53
2018-12-25T17:47:38.091Z,6.67
2018-12-25T17:50:08.531Z,6.47
2018-12-25T17:52:40.681Z,9.70
2018-12-25T17:55:11.598Z,13.07
2018-12-25T17:57:42.100Z,9.10
2018-12-25T18:00:12.980Z,9.90
2018-12-25T18:02:45.141Z,7.57
2018-12-25T18:05:15.947Z,7.30
2018-12-25T18:07:46.750Z,10.10
2018-12-25T18:10:17.516Z,9.67
2018-12-25T18:12:48.009Z,8.53
2018-12-25T18:15:18.448Z,9.03
2018-12-25T18:17:48.891Z,10.33
2018-12-25T18:20:19.743Z,9.27
2018-12-25T18:23:09.217Z,7.67
2018-12-25T18:25:39.704Z,6.93
2018-12-25T18:28:10.449Z,9.47
2018-12-25T18:30:40.884Z,8.30
2018-12-25T18:33:12.027Z,7.57
2018-12-25T18:35:44.508Z,9.13
2018-12-25T18:38:34.463Z,10.13
2018-12-25T18:41:24.371Z,8.77
2018-12-25T18:43:54.858Z,8.53
2018-12-25T18:46:25.296Z,7.53
2018-12-25T18:48:55.736Z,8.70
2018-12-25T18:51:26.198Z,10.90
2018-12-25T18:53:56.641Z,7.27
2018-12-25T18:56:46.945Z,8.90
2018-12-25T18:59:17.382Z,10.53
2018-12-25T19:01:47.864Z,12.07
2018-12-25T19:04:18.457Z,7.30
2018-12-25T19:06:48.934Z,11.67
2018-12-25T19:09:19.792Z,8.93
2018-12-25T19:11:50.225Z,8.03
2018-12-25T19:14:20.704Z,8.57
2018-12-25T19:16:51.714Z,7.97
2018-12-25T19:19:22.166Z,10.03
2018-12-25T19:21:52.633Z,11.20
2018-12-25T19:24:25.196Z,12.83
2018-12-25T19:26:55.676Z,8.40
2018-12-25T19:29:26.112Z,8.53
2018-12-25T19:31:58.430Z,13.07
2018-12-25T19:34:29.279Z,8.80
2018-12-25T19:37:00.104Z,9.10
2018-12-25T19:39:30.581Z,11.83
2018-12-25T19:42:01.025Z,13.83
2018-12-25T19:44:33.183Z,14.50
2018-12-25T19:47:03.654Z,15.07
2018-12-25T19:49:53.055Z,15.67
2018-12-25T19:52:43.019Z,14.60
2018-12-25T19:55:32.930Z,16.57
2018-12-25T19:58:03.428Z,14.97
2018-12-25T20:00:53.336Z,16.43
2018-12-25T20:03:29.587Z,19.67
2018-12-25T20:06:38.106Z,22.70
2018-12-25T20:09:46.638Z,17.93
2018-12-25T20:12:55.063Z,17.40
2018-12-25T20:16:03.523Z,18.17
2018-12-25T20:19:11.956Z,21.87
2018-12-25T20:22:20.721Z,22.40
2018-12-25T20:29:09.246Z,21.10
2018-12-25T20:32:18.026Z,26.03
2018-12-25T20:35:26.499Z,25.10
2018-12-25T20:38:35.228Z,24.73
2018-12-25T20:41:43.688Z,24.83
2018-12-25T20:44:52.111Z,25.63
2018-12-25T20:48:19.644Z,26.67
2018-12-25T20:51:28.038Z,28.43
2018-12-25T20:54:36.568Z,31.17
2018-12-25T21:01:33.257Z,28.83
2018-12-25T21:04:41.853Z,30.93
2018-12-25T21:07:50.640Z,31.90
2018-12-25T21:10:59.368Z,31.57
2018-12-25T21:14:07.935Z,34.03
2018-12-25T21:17:16.363Z,31.10
2018-12-25T21:20:24.840Z,33.87
2018-12-25T21:23:33.266Z,31.27
2018-12-25T21:26:41.743Z,34.23
2018-12-25T21:35:40.923Z,36.03
2018-12-25T21:38:11.370Z,36.83
2018-12-25T21:40:41.826Z,33.80
2018-12-25T21:43:12.524Z,32.87
2018-12-25T21:45:42.971Z,34.53
2018-12-25T21:48:13.421Z,33.90
2018-12-25T21:50:43.903Z,33.47
2018-12-25T21:53:14.351Z,34.40
2018-12-25T21:55:45.218Z,33.90
2018-12-25T21:58:15.763Z,32.50
2018-12-25T22:01:25.544Z,32.20
2018-12-25T22:07:25.278Z,33.10
2018-12-25T22:09:55.723Z,29.53
2018-12-25T22:12:26.218Z,35.27
2018-12-25T22:14:56.980Z,31.30
2018-12-25T22:17:27.428Z,33.30
2018-12-25T22:19:58.309Z,30.87
2018-12-25T22:22:28.755Z,29.13
2018-12-25T22:24:59.255Z,35.40
2018-12-25T22:27:30.054Z,34.20
2018-12-25T22:30:02.664Z,31.17
2018-12-25T22:32:33.144Z,32.73
2018-12-25T22:35:03.592Z,32.53
2018-12-25T22:37:34.083Z,30.30
2018-12-25T22:40:05.064Z,31.50
2018-12-25T22:42:35.504Z,28.83
2018-12-25T22:45:06.508Z,31.37
2018-12-25T22:47:37.302Z,28.70
2018-12-25T22:50:08.217Z,29.60
2018-12-25T22:52:38.667Z,27.83
2018-12-25T22:55:35.721Z,30.67
2018-12-25T22:58:20.359Z,29.57
2018-12-25T23:00:52.641Z,27.23
2018-12-25T23:03:23.088Z,32.27
2018-12-25T23:05:53.877Z,27.53
2018-12-25T23:08:24.350Z,29.87
2018-12-25T23:10:54.789Z,29.87
2018-12-25T23:13:25.293Z,28.30
2018-12-25T23:15:55.734Z,27.43
2018-12-25T23:18:26.341Z,26.97
2018-12-25T23:20:56.807Z,31.30
2018-12-25T23:23:27.640Z,30.87
2018-12-25T23:25:58.134Z,24.97
2018-12-25T23:28:30.303Z,25.60
2018-12-25T23:31:00.761Z,25.97
2018-12-25T23:33:31.218Z,25.40
2018-12-25T23:36:01.655Z,25.70
2018-12-25T23:38:32.530Z,26.60
2018-12-25T23:41:03.246Z,25.07
2018-12-25T23:43:33.697Z,24.57
2018-12-25T23:46:23.632Z,25.03
2018-12-25T23:49:13.847Z,25.80
2018-12-25T23:51:44.347Z,23.20
2018-12-25T23:54:14.787Z,20.73
2018-12-25T23:56:45.245Z,23.53
2018-12-25T23:59:15.778Z,22.47
